createdAt,value
2023-03-16T00:01:09.140Z,109.27
2023-03-16T00:03:36.604Z,69.23
2023-03-16T00:06:03.985Z,43.57
2023-03-16T00:08:30.767Z,102.63
2023-03-16T00:10:57.529Z,95.00
2023-03-16T00:13:25.182Z,12.20
2023-03-16T00:15:57.387Z,87.77
2023-03-16T00:18:28.452Z,157.23
2023-03-16T00:20:58.342Z,111.57
2023-03-16T00:23:28.723Z,71.33
2023-03-16T00:25:57.155Z,110.03
2023-03-16T00:28:26.262Z,18.13
2023-03-16T00:30:53.164Z,46.73
2023-03-16T00:33:19.833Z,15.83
2023-03-16T00:35:50.766Z,62.57
2023-03-16T00:38:19.097Z,51.03
2023-03-16T00:40:47.771Z,24.77
2023-03-16T00:43:18.732Z,23.43
2023-03-16T00:45:45.920Z,20.60
2023-03-16T00:48:12.637Z,64.83
2023-03-16T00:50:39.920Z,65.67
2023-03-16T00:53:06.616Z,22.47
2023-03-16T00:55:33.464Z,48.83
2023-03-16T00:58:00.166Z,79.50
2023-03-16T01:00:28.501Z,20.77
2023-03-16T01:02:55.532Z,53.23
2023-03-16T01:05:22.623Z,100.70
2023-03-16T01:07:49.302Z,115.23
2023-03-16T01:10:17.029Z,79.60
2023-03-16T01:12:45.563Z,148.37
2023-03-16T01:15:12.470Z,73.77
2023-03-16T01:17:39.358Z,53.97
2023-03-16T01:20:08.453Z,80.07
2023-03-16T01:22:35.145Z,61.47
2023-03-16T01:25:01.836Z,47.23
2023-03-16T01:27:28.656Z,49.23
2023-03-16T01:29:55.327Z,87.33
2023-03-16T01:32:22.030Z,64.60
2023-03-16T01:34:48.702Z,121.50
2023-03-16T01:37:15.407Z,94.13
2023-03-16T01:39:42.163Z,143.73
2023-03-16T01:42:09.082Z,30.60
2023-03-16T01:44:55.477Z,113.47
2023-03-16T01:47:23.281Z,109.03
2023-03-16T01:49:55.029Z,45.03
2023-03-16T01:52:28.147Z,144.17
2023-03-16T01:55:00.637Z,76.23
2023-03-16T01:57:32.445Z,60.73
2023-03-16T02:00:19.928Z,88.53
2023-03-16T02:02:49.679Z,84.40
2023-03-16T02:05:23.206Z,61.67
2023-03-16T02:07:52.276Z,117.33
2023-03-16T02:10:20.711Z,32.80
2023-03-16T02:12:47.581Z,33.17
2023-03-16T02:15:15.277Z,61.70
2023-03-16T02:17:44.171Z,93.43
2023-03-16T02:20:46.638Z,76.37
2023-03-16T02:23:21.103Z,129.50
2023-03-16T02:26:24.650Z,27.57
2023-03-16T02:29:11.469Z,28.83
2023-03-16T02:31:38.513Z,101.63
2023-03-16T02:34:05.662Z,37.73
2023-03-16T02:36:33.693Z,66.43
2023-03-16T02:39:00.375Z,30.70
2023-03-16T02:41:27.628Z,30.77
2023-03-16T02:44:01.488Z,60.73
2023-03-16T02:46:29.021Z,134.53
2023-03-16T02:48:59.479Z,31.37
2023-03-16T02:51:26.165Z,216.20
2023-03-16T02:53:52.860Z,65.03
2023-03-16T02:56:19.563Z,38.13
2023-03-16T02:58:46.237Z,113.53
2023-03-16T03:01:13.022Z,63.90
2023-03-16T03:03:40.192Z,110.90
2023-03-16T03:06:07.056Z,42.60
2023-03-16T03:08:33.782Z,29.57
2023-03-16T03:11:00.783Z,121.73
2023-03-16T03:13:27.561Z,57.50
2023-03-16T03:15:54.368Z,225.47
2023-03-16T03:18:21.099Z,215.13
2023-03-16T03:20:47.799Z,65.40
2023-03-16T03:23:17.086Z,33.53
2023-03-16T03:25:43.873Z,120.37
2023-03-16T03:28:11.456Z,95.33
2023-03-16T03:30:38.167Z,156.07
2023-03-16T03:33:05.233Z,224.60
2023-03-16T03:35:32.086Z,126.50
2023-03-16T03:37:58.933Z,164.73
2023-03-16T03:40:26.045Z,265.20
2023-03-16T03:42:53.045Z,289.80
2023-03-16T03:45:20.018Z,133.60
2023-03-16T03:47:46.735Z,118.93
2023-03-16T03:50:14.393Z,95.67
2023-03-16T03:52:41.320Z,158.30
2023-03-16T03:55:09.024Z,117.33
2023-03-16T03:57:35.933Z,56.23
2023-03-16T04:00:07.887Z,96.63
2023-03-16T04:02:34.745Z,117.63
2023-03-16T04:05:01.561Z,72.03
2023-03-16T04:07:28.293Z,57.40
2023-03-16T04:09:55.230Z,109.43
2023-03-16T04:12:22.494Z,149.93
2023-03-16T04:14:49.233Z,36.90
2023-03-16T04:17:15.941Z,64.27
2023-03-16T04:19:42.825Z,34.77
2023-03-16T04:22:09.659Z,54.00
2023-03-16T04:24:36.471Z,40.20
2023-03-16T04:27:03.165Z,58.87
2023-03-16T04:29:29.881Z,99.27
2023-03-16T04:31:56.619Z,46.03
2023-03-16T04:34:25.039Z,67.20
2023-03-16T04:36:53.047Z,90.30
2023-03-16T04:39:20.991Z,71.90
2023-03-16T04:41:47.792Z,187.73
2023-03-16T04:44:14.719Z,38.43
2023-03-16T04:46:41.504Z,63.23
2023-03-16T04:49:09.855Z,75.17
2023-03-16T04:51:40.732Z,47.43
2023-03-16T04:54:07.649Z,56.67
2023-03-16T04:56:34.547Z,78.30
2023-03-16T04:59:01.274Z,57.00
2023-03-16T05:01:29.354Z,138.23
2023-03-16T05:03:57.979Z,104.20
2023-03-16T05:06:26.388Z,106.77
2023-03-16T05:08:53.113Z,79.13
2023-03-16T05:11:20.866Z,57.00
2023-03-16T05:13:47.551Z,66.67
2023-03-16T05:16:14.397Z,61.53
2023-03-16T05:18:41.715Z,66.87
2023-03-16T05:21:08.420Z,57.57
2023-03-16T05:23:35.169Z,49.50
2023-03-16T05:26:02.510Z,44.77
2023-03-16T05:28:29.675Z,39.83
2023-03-16T05:30:56.528Z,44.33
2023-03-16T05:33:23.352Z,44.93
2023-03-16T05:35:51.573Z,45.33
2023-03-16T05:38:18.344Z,40.77
2023-03-16T05:40:46.216Z,35.40
2023-03-16T05:43:13.392Z,46.20
2023-03-16T05:45:40.217Z,38.60
2023-03-16T05:48:06.976Z,36.93
2023-03-16T05:50:33.704Z,43.83
2023-03-16T05:53:00.416Z,47.03
2023-03-16T05:55:27.287Z,39.73
2023-03-16T05:57:54.071Z,43.43
2023-03-16T06:00:21.309Z,55.07
2023-03-16T06:02:49.937Z,53.00
2023-03-16T06:05:18.047Z,43.97
2023-03-16T06:07:45.100Z,44.70
2023-03-16T06:10:12.867Z,37.23
2023-03-16T06:12:39.875Z,49.77
2023-03-16T06:15:08.025Z,50.67
2023-03-16T06:17:35.962Z,45.53
2023-03-16T06:20:03.911Z,39.93
2023-03-16T06:22:30.843Z,40.50
2023-03-16T06:24:57.564Z,33.30
2023-03-16T06:27:26.525Z,40.50
2023-03-16T06:29:53.523Z,32.50
2023-03-16T06:32:20.490Z,41.60
2023-03-16T06:34:47.783Z,37.17
2023-03-16T06:37:14.899Z,37.17
2023-03-16T06:39:41.689Z,35.93
2023-03-16T06:42:08.502Z,39.90
2023-03-16T06:44:35.296Z,37.37
2023-03-16T06:47:02.122Z,37.07
2023-03-16T06:49:28.920Z,35.53
2023-03-16T06:51:56.688Z,38.23
2023-03-16T06:54:23.535Z,39.97
2023-03-16T06:56:51.174Z,35.97
2023-03-16T06:59:18.056Z,27.63
2023-03-16T07:01:45.193Z,33.23
2023-03-16T07:04:12.858Z,32.23
2023-03-16T07:06:39.768Z,34.80
2023-03-16T07:09:06.607Z,29.70
2023-03-16T07:11:33.636Z,30.17
2023-03-16T07:14:01.592Z,24.70
2023-03-16T07:16:28.840Z,24.90
2023-03-16T07:18:55.691Z,27.60
2023-03-16T07:21:22.696Z,21.53
2023-03-16T07:23:50.184Z,21.27
2023-03-16T07:26:17.550Z,21.80
2023-03-16T07:28:45.021Z,18.93
2023-03-16T07:31:33.496Z,19.27
2023-03-16T07:34:02.469Z,18.50
2023-03-16T07:36:29.388Z,19.03
2023-03-16T07:38:56.219Z,16.73
2023-03-16T07:41:23.112Z,17.23
2023-03-16T07:43:49.886Z,16.67
2023-03-16T07:46:17.036Z,18.30
2023-03-16T07:48:45.176Z,16.70
2023-03-16T07:51:13.643Z,14.50
2023-03-16T07:53:40.755Z,14.80
2023-03-16T07:56:08.281Z,13.20
2023-03-16T07:58:35.557Z,12.77
2023-03-16T08:01:02.387Z,11.83
2023-03-16T08:03:30.285Z,13.67
2023-03-16T08:05:57.186Z,15.70
2023-03-16T08:08:24.165Z,11.90
2023-03-16T08:10:52.719Z,11.03
2023-03-16T08:13:22.464Z,12.93
2023-03-16T08:15:55.914Z,10.57
2023-03-16T08:18:24.012Z,10.30
2023-03-16T08:20:50.938Z,9.63
2023-03-16T08:23:17.860Z,9.75
2023-03-16T08:25:44.750Z,9.00
2023-03-16T08:28:12.737Z,9.25
2023-03-16T08:30:45.984Z,9.25
2023-03-16T08:33:13.072Z,9.45
2023-03-16T08:35:44.756Z,9.40
2023-03-16T08:38:12.529Z,9.27
2023-03-16T08:40:42.232Z,10.00
2023-03-16T08:43:09.158Z,9.68
2023-03-16T08:45:35.980Z,8.68
2023-03-16T08:48:02.877Z,8.52
2023-03-16T08:50:29.858Z,9.95
2023-03-16T08:52:56.772Z,8.88
2023-03-16T08:55:24.592Z,7.57
2023-03-16T08:57:51.681Z,9.57
2023-03-16T09:00:20.505Z,9.00
2023-03-16T09:02:48.462Z,7.82
2023-03-16T09:05:16.157Z,7.25
2023-03-16T09:07:43.809Z,6.60
2023-03-16T09:10:16.282Z,9.73
2023-03-16T09:12:44.462Z,12.27
2023-03-16T09:15:12.222Z,7.47
2023-03-16T09:17:41.652Z,7.88
2023-03-16T09:20:22.458Z,12.13
2023-03-16T09:22:59.520Z,9.63
2023-03-16T09:25:26.909Z,5.88
2023-03-16T09:27:54.150Z,7.45
2023-03-16T09:30:21.462Z,11.43
2023-03-16T09:32:49.109Z,22.08
2023-03-16T09:35:16.535Z,5.95
2023-03-16T09:37:45.520Z,6.18
2023-03-16T09:40:24.842Z,4.65
2023-03-16T09:43:10.832Z,4.95
2023-03-16T09:45:38.711Z,4.15
2023-03-16T09:48:06.713Z,4.30
2023-03-16T09:50:47.730Z,4.28
2023-03-16T09:53:24.940Z,4.78
2023-03-16T09:55:54.370Z,3.72
2023-03-16T09:58:22.836Z,3.55
2023-03-16T10:00:57.623Z,4.93
2023-03-16T10:03:47.664Z,4.90
2023-03-16T10:06:16.136Z,4.93
2023-03-16T10:08:50.723Z,5.90
2023-03-16T10:14:56.561Z,10.00
2023-03-16T10:17:42.450Z,13.27
2023-03-16T10:20:20.799Z,7.30
2023-03-16T10:22:49.350Z,13.15
2023-03-16T10:25:36.488Z,10.38
2023-03-16T10:28:03.717Z,4.03
2023-03-16T10:30:31.557Z,3.28
2023-03-16T10:33:03.534Z,6.55
2023-03-16T10:35:34.206Z,4.78
2023-03-16T10:38:01.605Z,2.60
2023-03-16T10:40:32.054Z,2.20
2023-03-16T10:43:05.653Z,4.35
2023-03-16T10:45:33.699Z,2.05
2023-03-16T10:48:08.242Z,1.65
2023-03-16T10:50:44.890Z,2.60
2023-03-16T10:53:26.997Z,3.20
2023-03-16T10:56:02.326Z,2.00
2023-03-16T10:58:33.857Z,3.25
2023-03-16T11:01:01.855Z,3.17
2023-03-16T11:03:32.961Z,3.70
2023-03-16T11:06:03.666Z,3.78
2023-03-16T11:08:41.628Z,4.40
2023-03-16T11:11:11.918Z,1.77
2023-03-16T11:13:45.077Z,2.85
2023-03-16T11:16:13.031Z,4.60
2023-03-16T11:18:44.554Z,1.50
2023-03-16T11:21:22.349Z,2.70
2023-03-16T11:23:51.770Z,2.28
2023-03-16T11:26:24.258Z,3.70
2023-03-16T11:28:56.496Z,2.35
2023-03-16T11:31:42.884Z,3.22
2023-03-16T11:34:15.530Z,3.28
2023-03-16T11:36:56.131Z,2.70
2023-03-16T11:39:28.469Z,1.90
2023-03-16T11:41:55.879Z,2.45
2023-03-16T11:44:23.027Z,2.50
2023-03-16T11:47:12.847Z,2.03
2023-03-16T11:49:59.970Z,3.58
2023-03-16T11:52:41.000Z,2.45
2023-03-16T11:55:43.278Z,3.70
2023-03-16T11:58:35.928Z,2.13
2023-03-16T12:01:14.350Z,2.47
2023-03-16T12:04:02.278Z,2.25
2023-03-16T12:06:44.158Z,2.88
2023-03-16T12:09:26.974Z,2.00
2023-03-16T12:12:05.046Z,2.22
2023-03-16T12:14:41.402Z,3.15
2023-03-16T12:17:12.386Z,1.67
2023-03-16T12:20:00.453Z,3.15
2023-03-16T12:22:37.405Z,3.50
2023-03-16T12:25:15.081Z,2.80
2023-03-16T12:27:43.619Z,1.73
2023-03-16T12:30:42.478Z,2.47
2023-03-16T12:33:27.131Z,4.53
2023-03-16T12:36:26.144Z,4.93
2023-03-16T12:38:56.014Z,4.68
2023-03-16T12:41:55.116Z,5.28
2023-03-16T12:44:34.472Z,2.67
2023-03-16T12:47:31.953Z,2.45
2023-03-16T12:50:19.838Z,1.83
2023-03-16T12:52:51.902Z,1.95
2023-03-16T12:55:38.564Z,3.30
2023-03-16T12:58:07.798Z,3.53
2023-03-16T13:00:37.795Z,8.80
2023-03-16T13:03:07.236Z,2.80
2023-03-16T13:05:44.201Z,5.95
2023-03-16T13:08:17.494Z,3.40
2023-03-16T13:11:05.016Z,3.85
2023-03-16T13:13:32.898Z,3.05
2023-03-16T13:16:23.609Z,1.77
2023-03-16T13:18:52.248Z,6.38
2023-03-16T13:21:19.074Z,3.58
2023-03-16T13:24:24.509Z,4.50
2023-03-16T13:26:54.221Z,1.52
2023-03-16T13:29:23.922Z,5.55
2023-03-16T13:31:52.597Z,2.10
2023-03-16T13:34:26.510Z,2.90
2023-03-16T13:36:56.966Z,5.00
2023-03-16T13:39:29.365Z,2.55
2023-03-16T13:41:59.832Z,4.05
2023-03-16T13:44:30.859Z,4.47
2023-03-16T13:47:02.417Z,5.87
2023-03-16T13:49:29.466Z,4.60
2023-03-16T13:51:56.383Z,2.80
2023-03-16T13:54:29.794Z,2.37
2023-03-16T13:57:03.680Z,3.77
2023-03-16T13:59:31.492Z,2.17
2023-03-16T14:02:01.816Z,2.30
2023-03-16T14:04:31.536Z,2.63
2023-03-16T14:07:04.349Z,2.63
2023-03-16T14:09:35.725Z,3.90
2023-03-16T14:12:03.664Z,2.97
2023-03-16T14:14:37.041Z,2.43
2023-03-16T14:17:13.582Z,2.00
2023-03-16T14:19:47.659Z,2.07
2023-03-16T14:22:29.265Z,3.00
2023-03-16T14:25:00.765Z,7.10
2023-03-16T14:27:39.851Z,2.10
2023-03-16T14:30:16.165Z,1.90
2023-03-16T14:32:55.323Z,5.33
2023-03-16T14:35:25.630Z,5.57
2023-03-16T14:37:55.115Z,3.60
2023-03-16T14:40:30.833Z,3.07
2023-03-16T14:43:00.696Z,3.73
2023-03-16T14:45:34.653Z,2.00
2023-03-16T14:48:20.299Z,2.57
2023-03-16T14:50:59.753Z,3.27
2023-03-16T14:53:28.557Z,3.03
2023-03-16T14:55:56.620Z,2.27
2023-03-16T14:58:23.988Z,2.40
2023-03-16T15:00:53.625Z,3.63
2023-03-16T15:03:22.329Z,3.60
2023-03-16T15:05:50.846Z,1.83
2023-03-16T15:08:20.108Z,3.10
2023-03-16T15:10:47.465Z,2.57
2023-03-16T15:13:34.504Z,2.30
2023-03-16T15:16:04.499Z,2.47
2023-03-16T15:18:32.691Z,2.90
2023-03-16T15:21:00.958Z,3.33
2023-03-16T15:23:29.475Z,2.57
2023-03-16T15:26:00.692Z,4.03
2023-03-16T15:28:28.403Z,2.97
2023-03-16T15:30:57.530Z,2.33
2023-03-16T15:33:25.794Z,3.17
2023-03-16T15:35:56.582Z,2.00
2023-03-16T15:38:32.151Z,2.20
2023-03-16T15:40:59.494Z,2.60
2023-03-16T15:43:28.879Z,2.50
2023-03-16T15:45:57.482Z,2.37
2023-03-16T15:48:25.379Z,2.97
2023-03-16T15:50:54.314Z,2.10
2023-03-16T15:53:36.519Z,2.37
2023-03-16T15:56:04.875Z,3.20
2023-03-16T15:58:33.192Z,2.10
2023-03-16T16:01:01.089Z,3.40
2023-03-16T16:03:28.337Z,2.87
2023-03-16T16:05:56.652Z,2.27
2023-03-16T16:08:24.218Z,8.27
2023-03-16T16:10:53.550Z,2.37
2023-03-16T16:13:37.397Z,1.47
2023-03-16T16:16:10.505Z,4.73
2023-03-16T16:18:38.733Z,1.73
2023-03-16T16:21:07.382Z,5.40
2023-03-16T16:23:34.924Z,2.90
2023-03-16T16:26:05.377Z,3.47
2023-03-16T16:28:33.604Z,3.50
2023-03-16T16:31:01.959Z,5.23
2023-03-16T16:33:33.674Z,4.87
2023-03-16T16:36:05.364Z,7.57
2023-03-16T16:38:33.105Z,10.17
2023-03-16T16:41:02.345Z,2.93
2023-03-16T16:43:41.295Z,3.33
2023-03-16T16:46:16.590Z,5.33
2023-03-16T16:48:45.006Z,3.57
2023-03-16T16:51:17.557Z,5.20
2023-03-16T16:53:45.411Z,1.63
2023-03-16T16:56:17.530Z,2.20
2023-03-16T16:58:46.379Z,1.87
2023-03-16T17:01:16.038Z,3.27
2023-03-16T17:03:44.335Z,1.83
2023-03-16T17:06:18.480Z,2.00
2023-03-16T17:08:50.359Z,2.17
2023-03-16T17:11:27.580Z,4.63
2023-03-16T17:13:55.638Z,1.70
2023-03-16T17:16:28.763Z,2.83
2023-03-16T17:18:55.878Z,1.80
2023-03-16T17:21:25.268Z,3.13
2023-03-16T17:23:57.350Z,2.00
2023-03-16T17:26:36.796Z,1.90
2023-03-16T17:29:09.244Z,2.73
2023-03-16T17:31:39.079Z,3.43
2023-03-16T17:34:26.680Z,5.17
2023-03-16T17:36:54.571Z,4.90
2023-03-16T17:39:33.859Z,2.43
2023-03-16T17:42:07.113Z,4.60
2023-03-16T17:44:38.124Z,2.73
2023-03-16T17:47:17.325Z,5.47
2023-03-16T17:49:48.908Z,4.20
2023-03-16T17:52:20.822Z,3.57
2023-03-16T17:54:48.776Z,3.13
2023-03-16T17:57:32.571Z,4.70
2023-03-16T18:00:01.653Z,3.10
2023-03-16T18:02:51.751Z,2.30
2023-03-16T18:05:28.747Z,4.70
2023-03-16T18:07:59.346Z,3.97
2023-03-16T18:10:31.304Z,5.93
2023-03-16T18:13:03.330Z,4.53
2023-03-16T18:15:32.878Z,4.97
2023-03-16T18:18:00.819Z,3.23
2023-03-16T18:20:32.975Z,12.60
2023-03-16T18:23:02.681Z,5.40
2023-03-16T18:25:36.224Z,4.40
2023-03-16T18:28:04.105Z,5.57
2023-03-16T18:30:31.645Z,3.90
2023-03-16T18:32:59.911Z,4.03
2023-03-16T18:35:27.286Z,4.13
2023-03-16T18:37:55.325Z,3.90
2023-03-16T18:40:24.760Z,4.87
2023-03-16T18:42:52.299Z,3.57
2023-03-16T18:45:19.119Z,4.10
2023-03-16T18:47:54.439Z,4.93
2023-03-16T18:50:27.429Z,3.50
2023-03-16T18:52:55.498Z,4.70
2023-03-16T18:55:24.783Z,4.93
2023-03-16T18:57:52.781Z,4.67
2023-03-16T19:00:27.211Z,4.87
2023-03-16T19:03:01.562Z,9.17
2023-03-16T19:05:35.647Z,10.03
2023-03-16T19:08:04.842Z,5.03
2023-03-16T19:10:36.591Z,3.97
2023-03-16T19:13:04.536Z,4.77
2023-03-16T19:15:33.853Z,4.47
2023-03-16T19:18:00.923Z,4.60
2023-03-16T19:20:31.382Z,5.93
2023-03-16T19:23:22.997Z,17.77
2023-03-16T19:25:51.471Z,11.67
2023-03-16T19:28:39.745Z,14.23
2023-03-16T19:31:25.462Z,13.00
2023-03-16T19:33:52.488Z,10.40
2023-03-16T19:36:24.862Z,6.67
2023-03-16T19:38:52.408Z,6.57
2023-03-16T19:41:32.268Z,5.10
2023-03-16T19:44:22.333Z,4.93
2023-03-16T19:46:49.764Z,6.23
2023-03-16T19:49:22.711Z,6.07
2023-03-16T19:51:51.378Z,7.50
2023-03-16T19:54:24.117Z,7.47
2023-03-16T19:56:52.622Z,6.90
2023-03-16T19:59:20.877Z,8.10
2023-03-16T20:01:48.064Z,7.33
2023-03-16T20:04:23.253Z,8.83
2023-03-16T20:06:50.951Z,6.70
2023-03-16T20:09:18.391Z,8.67
2023-03-16T20:11:47.024Z,8.37
2023-03-16T20:14:23.946Z,8.27
2023-03-16T20:16:51.093Z,8.43
2023-03-16T20:19:17.867Z,9.93
2023-03-16T20:21:45.329Z,7.47
2023-03-16T20:24:20.864Z,7.20
2023-03-16T20:26:49.633Z,7.43
2023-03-16T20:29:27.364Z,6.77
2023-03-16T20:31:54.231Z,8.43
2023-03-16T20:34:27.419Z,10.33
2023-03-16T20:36:54.395Z,7.33
2023-03-16T20:39:21.060Z,6.97
2023-03-16T20:41:48.311Z,11.27
2023-03-16T20:44:18.628Z,13.50
2023-03-16T20:46:46.085Z,8.20
2023-03-16T20:49:32.819Z,10.97
2023-03-16T20:52:00.125Z,13.17
2023-03-16T20:54:27.325Z,15.60
2023-03-16T20:56:55.147Z,15.10
2023-03-16T20:59:24.881Z,16.30
2023-03-16T21:01:54.579Z,16.70
2023-03-16T21:04:27.204Z,18.67
2023-03-16T21:06:55.687Z,20.00
2023-03-16T21:09:22.478Z,21.83
2023-03-16T21:11:49.582Z,22.03
2023-03-16T21:14:23.952Z,18.83
2023-03-16T21:16:53.117Z,19.37
2023-03-16T21:19:22.815Z,17.23
2023-03-16T21:21:50.251Z,17.27
2023-03-16T21:24:17.400Z,15.47
2023-03-16T21:26:45.002Z,15.80
2023-03-16T21:29:16.310Z,15.73
2023-03-16T21:31:43.173Z,15.20
2023-03-16T21:34:26.527Z,16.67
2023-03-16T21:36:53.505Z,16.30
2023-03-16T21:39:23.575Z,14.50
2023-03-16T21:41:50.791Z,14.30
2023-03-16T21:44:18.398Z,16.23
2023-03-16T21:46:46.547Z,15.93
2023-03-16T21:49:14.238Z,12.87
2023-03-16T21:51:43.091Z,14.30
2023-03-16T21:54:14.649Z,15.17
2023-03-16T21:56:44.788Z,17.97
2023-03-16T21:59:11.956Z,17.53
2023-03-16T22:01:50.914Z,17.33
2023-03-16T22:04:21.675Z,15.23
2023-03-16T22:06:48.421Z,16.23
2023-03-16T22:09:20.717Z,16.53
2023-03-16T22:11:47.495Z,18.27
2023-03-16T22:14:14.215Z,15.17
2023-03-16T22:16:41.395Z,14.87
2023-03-16T22:19:14.779Z,14.13
2023-03-16T22:21:43.781Z,15.27
2023-03-16T22:24:19.573Z,14.80
2023-03-16T22:26:47.522Z,11.20
2023-03-16T22:29:23.527Z,11.87
2023-03-16T22:31:53.727Z,12.57
2023-03-16T22:34:36.009Z,9.57
2023-03-16T22:37:03.192Z,10.30
2023-03-16T22:39:34.919Z,10.00
2023-03-16T22:42:01.640Z,8.90
2023-03-16T22:44:28.381Z,9.93
2023-03-16T22:46:55.138Z,13.70
2023-03-16T22:49:26.232Z,10.20
2023-03-16T22:51:56.341Z,12.27
2023-03-16T22:54:27.465Z,14.87
2023-03-16T22:56:54.217Z,9.80
2023-03-16T22:59:25.650Z,9.43
2023-03-16T23:01:52.530Z,9.63
2023-03-16T23:04:22.019Z,11.93
2023-03-16T23:06:51.418Z,15.50
2023-03-16T23:09:20.364Z,12.13
2023-03-16T23:11:50.150Z,12.23
2023-03-16T23:14:29.010Z,27.10
2023-03-16T23:17:00.082Z,11.97
2023-03-16T23:19:34.602Z,15.80
2023-03-16T23:22:04.931Z,13.00
2023-03-16T23:24:33.160Z,12.67
2023-03-16T23:27:00.734Z,12.57
2023-03-16T23:29:28.537Z,13.63
2023-03-16T23:31:56.496Z,12.47
2023-03-16T23:34:25.501Z,13.93
2023-03-16T23:36:52.694Z,12.93
2023-03-16T23:39:19.378Z,16.50
2023-03-16T23:41:48.272Z,12.93
2023-03-16T23:44:22.842Z,12.07
2023-03-16T23:46:50.161Z,13.80
2023-03-16T23:49:24.203Z,13.47
2023-03-16T23:51:52.238Z,13.50
2023-03-16T23:54:23.820Z,14.10
2023-03-16T23:56:51.398Z,12.00
2023-03-16T23:59:20.287Z,13.53
